sensor_id;sensor_type;location;lat;lon;timestamp;temperature;humidity
18287;DHT22;9269;50.838;12.094;2024-02-16T00:00:24;12.90;71.40
18287;DHT22;9269;50.838;12.094;2024-02-16T00:02:53;12.90;71.30
18287;DHT22;9269;50.838;12.094;2024-02-16T00:05:25;12.90;71.50
18287;DHT22;9269;50.838;12.094;2024-02-16T00:07:54;12.90;71.50
18287;DHT22;9269;50.838;12.094;2024-02-16T00:10:24;12.90;71.40
18287;DHT22;9269;50.838;12.094;2024-02-16T00:12:54;13.00;71.60
18287;DHT22;9269;50.838;12.094;2024-02-16T00:15:24;12.80;71.30
18287;DHT22;9269;50.838;12.094;2024-02-16T00:17:52;12.90;71.40
18287;DHT22;9269;50.838;12.094;2024-02-16T00:24:22;12.80;71.30
18287;DHT22;9269;50.838;12.094;2024-02-16T00:26:53;12.80;71.40
18287;DHT22;9269;50.838;12.094;2024-02-16T00:29:24;12.80;71.40
18287;DHT22;9269;50.838;12.094;2024-02-16T00:31:54;12.80;71.40
18287;DHT22;9269;50.838;12.094;2024-02-16T00:34:24;12.80;71.50
18287;DHT22;9269;50.838;12.094;2024-02-16T00:36:54;12.90;71.50
18287;DHT22;9269;50.838;12.094;2024-02-16T00:39:24;12.90;71.50
18287;DHT22;9269;50.838;12.094;2024-02-16T00:41:53;12.90;71.50
18287;DHT22;9269;50.838;12.094;2024-02-16T00:44:22;12.90;71.50
18287;DHT22;9269;50.838;12.094;2024-02-16T00:46:50;12.90;71.40
18287;DHT22;9269;50.838;12.094;2024-02-16T00:49:21;12.90;71.60
18287;DHT22;9269;50.838;12.094;2024-02-16T00:51:53;13.00;71.50
18287;DHT22;9269;50.838;12.094;2024-02-16T00:54:29;13.00;71.50
18287;DHT22;9269;50.838;12.094;2024-02-16T00:57:00;13.00;71.40
18287;DHT22;9269;50.838;12.094;2024-02-16T00:59:30;12.90;71.50
18287;DHT22;9269;50.838;12.094;2024-02-16T01:02:00;12.90;71.40
18287;DHT22;9269;50.838;12.094;2024-02-16T01:04:28;13.00;71.50
18287;DHT22;9269;50.838;12.094;2024-02-16T01:06:58;13.00;71.40
18287;DHT22;9269;50.838;12.094;2024-02-16T01:09:48;12.90;71.50
18287;DHT22;9269;50.838;12.094;2024-02-16T01:12:18;12.90;71.30
18287;DHT22;9269;50.838;12.094;2024-02-16T01:14:48;13.00;71.40
18287;DHT22;9269;50.838;12.094;2024-02-16T01:17:19;13.00;71.30
18287;DHT22;9269;50.838;12.094;2024-02-16T01:19:49;13.00;71.50
18287;DHT22;9269;50.838;12.094;2024-02-16T01:22:17;13.00;71.50
18287;DHT22;9269;50.838;12.094;2024-02-16T01:27:35;13.00;71.40
18287;DHT22;9269;50.838;12.094;2024-02-16T01:30:05;13.00;71.40
18287;DHT22;9269;50.838;12.094;2024-02-16T01:32:34;13.00;71.40
18287;DHT22;9269;50.838;12.094;2024-02-16T01:35:05;13.00;71.40
18287;DHT22;9269;50.838;12.094;2024-02-16T01:37:36;13.00;71.40
18287;DHT22;9269;50.838;12.094;2024-02-16T01:40:09;13.00;71.40
18287;DHT22;9269;50.838;12.094;2024-02-16T01:42:43;13.00;71.30
18287;DHT22;9269;50.838;12.094;2024-02-16T01:45:11;13.00;71.40
18287;DHT22;9269;50.838;12.094;2024-02-16T01:47:41;13.00;71.30
18287;DHT22;9269;50.838;12.094;2024-02-16T01:50:15;13.00;71.20
18287;DHT22;9269;50.838;12.094;2024-02-16T01:52:46;13.00;71.20
18287;DHT22;9269;50.838;12.094;2024-02-16T01:55:15;12.90;71.30
18287;DHT22;9269;50.838;12.094;2024-02-16T01:57:47;13.00;71.20
18287;DHT22;9269;50.838;12.094;2024-02-16T02:00:18;13.00;71.30
18287;DHT22;9269;50.838;12.094;2024-02-16T02:02:50;13.00;71.30
18287;DHT22;9269;50.838;12.094;2024-02-16T02:05:19;13.00;71.20
18287;DHT22;9269;50.838;12.094;2024-02-16T02:07:48;13.00;71.10
18287;DHT22;9269;50.838;12.094;2024-02-16T02:10:16;13.00;71.30
18287;DHT22;9269;50.838;12.094;2024-02-16T02:12:46;13.00;71.20
18287;DHT22;9269;50.838;12.094;2024-02-16T02:15:34;13.00;71.20
18287;DHT22;9269;50.838;12.094;2024-02-16T02:18:08;13.00;71.10
18287;DHT22;9269;50.838;12.094;2024-02-16T02:20:40;13.00;71.20
18287;DHT22;9269;50.838;12.094;2024-02-16T02:23:12;13.00;71.10
18287;DHT22;9269;50.838;12.094;2024-02-16T02:25:43;13.00;71.30
18287;DHT22;9269;50.838;12.094;2024-02-16T02:28:11;13.00;71.20
18287;DHT22;9269;50.838;12.094;2024-02-16T02:30:40;13.00;71.30
18287;DHT22;9269;50.838;12.094;2024-02-16T02:33:09;13.00;71.30
18287;DHT22;9269;50.838;12.094;2024-02-16T02:35:38;13.00;71.20
18287;DHT22;9269;50.838;12.094;2024-02-16T02:38:11;13.00;71.20
18287;DHT22;9269;50.838;12.094;2024-02-16T02:40:43;13.10;71.10
18287;DHT22;9269;50.838;12.094;2024-02-16T02:43:14;13.10;71.20
18287;DHT22;9269;50.838;12.094;2024-02-16T02:45:44;13.10;71.10
18287;DHT22;9269;50.838;12.094;2024-02-16T02:48:13;13.10;71.00
18287;DHT22;9269;50.838;12.094;2024-02-16T02:50:41;13.00;71.00
18287;DHT22;9269;50.838;12.094;2024-02-16T02:53:12;13.10;71.10
18287;DHT22;9269;50.838;12.094;2024-02-16T02:55:41;13.00;71.10
18287;DHT22;9269;50.838;12.094;2024-02-16T02:58:09;13.10;71.00
18287;DHT22;9269;50.838;12.094;2024-02-16T03:00:41;13.10;71.20
18287;DHT22;9269;50.838;12.094;2024-02-16T03:03:12;13.00;71.20
18287;DHT22;9269;50.838;12.094;2024-02-16T03:05:43;12.90;71.10
18287;DHT22;9269;50.838;12.094;2024-02-16T03:08:15;13.00;71.10
18287;DHT22;9269;50.838;12.094;2024-02-16T03:10:44;13.00;71.10
18287;DHT22;9269;50.838;12.094;2024-02-16T03:13:12;12.90;71.10
18287;DHT22;9269;50.838;12.094;2024-02-16T03:15:45;13.00;71.10
18287;DHT22;9269;50.838;12.094;2024-02-16T03:18:14;12.90;71.10
18287;DHT22;9269;50.838;12.094;2024-02-16T03:21:02;13.00;71.10
18287;DHT22;9269;50.838;12.094;2024-02-16T03:23:35;13.00;71.20
18287;DHT22;9269;50.838;12.094;2024-02-16T03:26:04;13.00;71.20
18287;DHT22;9269;50.838;12.094;2024-02-16T03:28:34;12.90;71.20
18287;DHT22;9269;50.838;12.094;2024-02-16T03:31:04;13.00;71.30
18287;DHT22;9269;50.838;12.094;2024-02-16T03:33:33;13.00;71.20
18287;DHT22;9269;50.838;12.094;2024-02-16T03:36:02;13.00;71.20
18287;DHT22;9269;50.838;12.094;2024-02-16T03:38:31;13.00;71.20
18287;DHT22;9269;50.838;12.094;2024-02-16T03:41:01;13.00;71.30
18287;DHT22;9269;50.838;12.094;2024-02-16T03:43:33;12.90;71.20
18287;DHT22;9269;50.838;12.094;2024-02-16T03:46:04;13.00;71.20
18287;DHT22;9269;50.838;12.094;2024-02-16T03:48:34;13.00;71.40
18287;DHT22;9269;50.838;12.094;2024-02-16T03:51:05;13.00;71.40
18287;DHT22;9269;50.838;12.094;2024-02-16T03:53:34;13.00;71.10
18287;DHT22;9269;50.838;12.094;2024-02-16T03:56:04;13.10;71.40
18287;DHT22;9269;50.838;12.094;2024-02-16T03:58:36;13.00;71.20
18287;DHT22;9269;50.838;12.094;2024-02-16T04:01:05;13.10;71.20
18287;DHT22;9269;50.838;12.094;2024-02-16T04:03:34;13.00;71.20
18287;DHT22;9269;50.838;12.094;2024-02-16T04:06:05;13.10;71.20
18287;DHT22;9269;50.838;12.094;2024-02-16T04:08:34;13.10;71.30
18287;DHT22;9269;50.838;12.094;2024-02-16T04:11:05;13.10;71.30
18287;DHT22;9269;50.838;12.094;2024-02-16T04:13:36;13.20;71.10
18287;DHT22;9269;50.838;12.094;2024-02-16T04:16:04;13.20;71.20
18287;DHT22;9269;50.838;12.094;2024-02-16T04:18:33;13.20;71.30
18287;DHT22;9269;50.838;12.094;2024-02-16T04:21:02;13.20;71.20
18287;DHT22;9269;50.838;12.094;2024-02-16T04:23:32;13.20;71.10
18287;DHT22;9269;50.838;12.094;2024-02-16T04:26:21;13.20;71.20
18287;DHT22;9269;50.838;12.094;2024-02-16T04:28:50;13.20;71.20
18287;DHT22;9269;50.838;12.094;2024-02-16T04:31:20;13.20;71.10
18287;DHT22;9269;50.838;12.094;2024-02-16T04:33:50;13.20;71.10
18287;DHT22;9269;50.838;12.094;2024-02-16T04:36:20;13.20;71.10
18287;DHT22;9269;50.838;12.094;2024-02-16T04:38:49;13.20;71.00
18287;DHT22;9269;50.838;12.094;2024-02-16T04:41:21;13.20;71.10
18287;DHT22;9269;50.838;12.094;2024-02-16T04:43:49;13.20;71.00
18287;DHT22;9269;50.838;12.094;2024-02-16T04:46:18;13.20;70.90
18287;DHT22;9269;50.838;12.094;2024-02-16T04:48:49;13.20;71.00
18287;DHT22;9269;50.838;12.094;2024-02-16T04:51:20;13.20;71.00
18287;DHT22;9269;50.838;12.094;2024-02-16T04:53:52;13.20;71.00
18287;DHT22;9269;50.838;12.094;2024-02-16T04:56:24;13.20;70.90
18287;DHT22;9269;50.838;12.094;2024-02-16T04:58:53;13.10;71.00
18287;DHT22;9269;50.838;12.094;2024-02-16T05:01:22;13.20;71.00
18287;DHT22;9269;50.838;12.094;2024-02-16T05:03:50;13.10;70.90
18287;DHT22;9269;50.838;12.094;2024-02-16T05:06:19;13.10;70.90
18287;DHT22;9269;50.838;12.094;2024-02-16T05:08:48;13.10;71.00
18287;DHT22;9269;50.838;12.094;2024-02-16T05:11:20;13.10;70.90
18287;DHT22;9269;50.838;12.094;2024-02-16T05:13:53;13.10;70.80
18287;DHT22;9269;50.838;12.094;2024-02-16T05:16:22;13.00;70.80
18287;DHT22;9269;50.838;12.094;2024-02-16T05:18:51;13.10;71.00
18287;DHT22;9269;50.838;12.094;2024-02-16T05:21:20;13.10;70.80
18287;DHT22;9269;50.838;12.094;2024-02-16T05:23:50;13.10;70.70
18287;DHT22;9269;50.838;12.094;2024-02-16T05:26:18;13.00;70.80
18287;DHT22;9269;50.838;12.094;2024-02-16T05:28:48;13.00;70.80
18287;DHT22;9269;50.838;12.094;2024-02-16T05:31:18;13.00;70.80
18287;DHT22;9269;50.838;12.094;2024-02-16T05:33:50;13.00;70.80
18287;DHT22;9269;50.838;12.094;2024-02-16T05:36:22;13.00;70.80
18287;DHT22;9269;50.838;12.094;2024-02-16T05:38:54;13.00;70.90
18287;DHT22;9269;50.838;12.094;2024-02-16T05:41:25;13.00;70.90
18287;DHT22;9269;50.838;12.094;2024-02-16T06:56:21;13.00;70.90
18287;DHT22;9269;50.838;12.094;2024-02-16T06:58:51;13.00;70.80
18287;DHT22;9269;50.838;12.094;2024-02-16T07:01:22;13.00;70.80
18287;DHT22;9269;50.838;12.094;2024-02-16T07:03:53;13.00;70.80
18287;DHT22;9269;50.838;12.094;2024-02-16T07:06:24;13.00;70.70
18287;DHT22;9269;50.838;12.094;2024-02-16T07:08:55;13.00;70.70
18287;DHT22;9269;50.838;12.094;2024-02-16T07:11:25;13.00;70.60
18287;DHT22;9269;50.838;12.094;2024-02-16T07:13:54;13.10;70.70
18287;DHT22;9269;50.838;12.094;2024-02-16T07:16:22;13.10;70.80
18287;DHT22;9269;50.838;12.094;2024-02-16T07:18:51;13.10;65.70
18287;DHT22;9269;50.838;12.094;2024-02-16T07:21:22;13.20;65.80
18287;DHT22;9269;50.838;12.094;2024-02-16T07:23:55;13.20;65.80
18287;DHT22;9269;50.838;12.094;2024-02-16T07:26:28;13.20;70.60
18287;DHT22;9269;50.838;12.094;2024-02-16T07:28:59;13.20;65.60
18287;DHT22;9269;50.838;12.094;2024-02-16T07:31:32;13.20;65.50
18287;DHT22;9269;50.838;12.094;2024-02-16T07:34:01;13.30;65.40
18287;DHT22;9269;50.838;12.094;2024-02-16T07:36:29;13.40;65.60
18287;DHT22;9269;50.838;12.094;2024-02-16T07:38:59;13.40;65.40
18287;DHT22;9269;50.838;12.094;2024-02-16T07:41:29;13.40;65.50
18287;DHT22;9269;50.838;12.094;2024-02-16T07:44:00;13.30;65.20
18287;DHT22;9269;50.838;12.094;2024-02-16T07:46:31;13.40;65.30
18287;DHT22;9269;50.838;12.094;2024-02-16T07:49:04;13.50;65.00
18287;DHT22;9269;50.838;12.094;2024-02-16T07:51:36;13.50;65.10
18287;DHT22;9269;50.838;12.094;2024-02-16T07:54:06;13.70;65.10
18287;DHT22;9269;50.838;12.094;2024-02-16T07:56:37;13.60;65.20
18287;DHT22;9269;50.838;12.094;2024-02-16T07:59:05;13.60;65.00
18287;DHT22;9269;50.838;12.094;2024-02-16T08:01:34;13.70;64.90
18287;DHT22;9269;50.838;12.094;2024-02-16T08:04:02;13.70;65.00
18287;DHT22;9269;50.838;12.094;2024-02-16T08:06:36;13.80;65.00
18287;DHT22;9269;50.838;12.094;2024-02-16T08:09:04;13.70;64.80
18287;DHT22;9269;50.838;12.094;2024-02-16T08:11:34;13.80;64.70
18287;DHT22;9269;50.838;12.094;2024-02-16T08:14:05;13.90;64.70
18287;DHT22;9269;50.838;12.094;2024-02-16T08:16:35;13.90;64.50
18287;DHT22;9269;50.838;12.094;2024-02-16T08:19:04;13.90;64.10
18287;DHT22;9269;50.838;12.094;2024-02-16T08:21:33;14.00;64.10
18287;DHT22;9269;50.838;12.094;2024-02-16T08:24:01;14.00;64.00
18287;DHT22;9269;50.838;12.094;2024-02-16T08:26:47;14.00;64.00
18287;DHT22;9269;50.838;12.094;2024-02-16T08:29:20;14.10;64.10
18287;DHT22;9269;50.838;12.094;2024-02-16T08:31:49;14.20;63.90
18287;DHT22;9269;50.838;12.094;2024-02-16T08:34:20;14.10;63.80
18287;DHT22;9269;50.838;12.094;2024-02-16T08:36:52;14.20;63.40
18287;DHT22;9269;50.838;12.094;2024-02-16T08:39:20;14.10;63.80
18287;DHT22;9269;50.838;12.094;2024-02-16T08:41:52;14.20;63.60
18287;DHT22;9269;50.838;12.094;2024-02-16T08:44:22;14.20;63.40
18287;DHT22;9269;50.838;12.094;2024-02-16T08:46:50;14.20;63.50
18287;DHT22;9269;50.838;12.094;2024-02-16T08:49:21;14.20;63.50
18287;DHT22;9269;50.838;12.094;2024-02-16T08:51:50;14.30;63.50
18287;DHT22;9269;50.838;12.094;2024-02-16T08:54:22;14.40;63.20
18287;DHT22;9269;50.838;12.094;2024-02-16T08:56:50;14.40;63.50
18287;DHT22;9269;50.838;12.094;2024-02-16T08:59:19;14.50;63.30
18287;DHT22;9269;50.838;12.094;2024-02-16T09:01:49;14.50;63.20
18287;DHT22;9269;50.838;12.094;2024-02-16T09:04:18;14.50;63.00
18287;DHT22;9269;50.838;12.094;2024-02-16T09:06:46;14.60;63.10
18287;DHT22;9269;50.838;12.094;2024-02-16T09:09:16;14.70;62.70
18287;DHT22;9269;50.838;12.094;2024-02-16T09:11:48;14.80;62.50
18287;DHT22;9269;50.838;12.094;2024-02-16T09:14:17;14.90;62.70
18287;DHT22;9269;50.838;12.094;2024-02-16T09:16:50;15.00;62.30
18287;DHT22;9269;50.838;12.094;2024-02-16T09:19:21;15.10;62.30
18287;DHT22;9269;50.838;12.094;2024-02-16T09:21:50;15.00;61.80
18287;DHT22;9269;50.838;12.094;2024-02-16T09:24:21;15.10;61.70
18287;DHT22;9269;50.838;12.094;2024-02-16T09:26:52;15.00;61.50
18287;DHT22;9269;50.838;12.094;2024-02-16T09:29:21;15.20;61.90
18287;DHT22;9269;50.838;12.094;2024-02-16T09:32:10;15.10;61.60
18287;DHT22;9269;50.838;12.094;2024-02-16T09:34:42;15.30;61.40
18287;DHT22;9269;50.838;12.094;2024-02-16T09:37:13;15.30;61.20
18287;DHT22;9269;50.838;12.094;2024-02-16T09:39:46;15.50;59.70
18287;DHT22;9269;50.838;12.094;2024-02-16T09:42:17;15.60;59.30
18287;DHT22;9269;50.838;12.094;2024-02-16T09:44:46;15.60;59.00
18287;DHT22;9269;50.838;12.094;2024-02-16T09:47:16;15.70;59.20
18287;DHT22;9269;50.838;12.094;2024-02-16T09:49:47;15.60;58.80
18287;DHT22;9269;50.838;12.094;2024-02-16T09:52:16;15.70;59.20
18287;DHT22;9269;50.838;12.094;2024-02-16T09:54:50;15.70;58.90
18287;DHT22;9269;50.838;12.094;2024-02-16T09:57:21;15.80;59.20
18287;DHT22;9269;50.838;12.094;2024-02-16T09:59:53;15.70;58.80
18287;DHT22;9269;50.838;12.094;2024-02-16T10:02:26;15.70;58.60
18287;DHT22;9269;50.838;12.094;2024-02-16T10:04:55;15.80;58.70
18287;DHT22;9269;50.838;12.094;2024-02-16T10:07:31;15.80;58.40
18287;DHT22;9269;50.838;12.094;2024-02-16T10:10:00;15.80;58.00
18287;DHT22;9269;50.838;12.094;2024-02-16T10:12:28;15.80;57.90
18287;DHT22;9269;50.838;12.094;2024-02-16T10:14:57;15.70;57.70
18287;DHT22;9269;50.838;12.094;2024-02-16T10:17:32;15.70;57.70
18287;DHT22;9269;50.838;12.094;2024-02-16T10:20:04;15.70;57.60
18287;DHT22;9269;50.838;12.094;2024-02-16T10:22:34;15.90;57.50
18287;DHT22;9269;50.838;12.094;2024-02-16T10:25:17;15.90;57.70
18287;DHT22;9269;50.838;12.094;2024-02-16T10:27:46;15.90;57.40
18287;DHT22;9269;50.838;12.094;2024-02-16T10:30:15;16.00;57.30
18287;DHT22;9269;50.838;12.094;2024-02-16T10:32:46;16.00;57.10
18287;DHT22;9269;50.838;12.094;2024-02-16T10:35:16;16.00;57.00
18287;DHT22;9269;50.838;12.094;2024-02-16T10:38:04;15.90;57.20
18287;DHT22;9269;50.838;12.094;2024-02-16T10:40:37;16.00;57.20
18287;DHT22;9269;50.838;12.094;2024-02-16T10:43:09;16.00;57.00
18287;DHT22;9269;50.838;12.094;2024-02-16T10:45:39;16.00;57.00
18287;DHT22;9269;50.838;12.094;2024-02-16T10:48:10;16.00;56.60
18287;DHT22;9269;50.838;12.094;2024-02-16T10:50:40;16.00;56.60
18287;DHT22;9269;50.838;12.094;2024-02-16T10:53:14;16.00;56.80
18287;DHT22;9269;50.838;12.094;2024-02-16T10:55:44;16.20;56.40
18287;DHT22;9269;50.838;12.094;2024-02-16T10:58:12;16.10;56.90
18287;DHT22;9269;50.838;12.094;2024-02-16T11:00:54;16.20;56.60
18287;DHT22;9269;50.838;12.094;2024-02-16T11:03:27;16.20;55.80
18287;DHT22;9269;50.838;12.094;2024-02-16T11:05:59;16.20;55.90
18287;DHT22;9269;50.838;12.094;2024-02-16T11:08:37;16.20;55.70
18287;DHT22;9269;50.838;12.094;2024-02-16T11:11:06;16.30;55.40
18287;DHT22;9269;50.838;12.094;2024-02-16T11:13:38;16.30;55.40
18287;DHT22;9269;50.838;12.094;2024-02-16T11:16:09;16.50;55.10
18287;DHT22;9269;50.838;12.094;2024-02-16T11:18:42;16.40;55.00
18287;DHT22;9269;50.838;12.094;2024-02-16T11:21:33;16.50;54.80
18287;DHT22;9269;50.838;12.094;2024-02-16T11:24:06;16.60;54.50
18287;DHT22;9269;50.838;12.094;2024-02-16T11:26:45;16.60;54.50
18287;DHT22;9269;50.838;12.094;2024-02-16T11:55:08;17.10;55.00
18287;DHT22;9269;50.838;12.094;2024-02-16T11:57:39;17.10;55.00
18287;DHT22;9269;50.838;12.094;2024-02-16T12:00:09;17.20;54.80
18287;DHT22;9269;50.838;12.094;2024-02-16T12:02:43;17.20;54.80
18287;DHT22;9269;50.838;12.094;2024-02-16T12:05:14;17.30;54.90
18287;DHT22;9269;50.838;12.094;2024-02-16T12:07:46;17.30;55.00
18287;DHT22;9269;50.838;12.094;2024-02-16T12:10:14;17.40;55.10
18287;DHT22;9269;50.838;12.094;2024-02-16T12:12:47;17.40;54.90
18287;DHT22;9269;50.838;12.094;2024-02-16T12:15:18;17.40;54.40
18287;DHT22;9269;50.838;12.094;2024-02-16T12:17:59;17.50;54.40
18287;DHT22;9269;50.838;12.094;2024-02-16T12:20:29;17.40;54.20
18287;DHT22;9269;50.838;12.094;2024-02-16T12:22:58;17.40;54.20
18287;DHT22;9269;50.838;12.094;2024-02-16T12:25:29;17.50;54.00
18287;DHT22;9269;50.838;12.094;2024-02-16T12:27:59;17.50;54.50
18287;DHT22;9269;50.838;12.094;2024-02-16T12:30:29;17.60;54.10
18287;DHT22;9269;50.838;12.094;2024-02-16T12:32:58;17.70;53.80
18287;DHT22;9269;50.838;12.094;2024-02-16T12:35:29;17.60;53.90
18287;DHT22;9269;50.838;12.094;2024-02-16T12:37:58;17.60;53.90
18287;DHT22;9269;50.838;12.094;2024-02-16T12:40:27;17.60;54.20
18287;DHT22;9269;50.838;12.094;2024-02-16T12:42:59;17.70;53.90
18287;DHT22;9269;50.838;12.094;2024-02-16T12:45:28;17.70;53.30
18287;DHT22;9269;50.838;12.094;2024-02-16T12:48:01;17.70;53.40
18287;DHT22;9269;50.838;12.094;2024-02-16T12:50:33;17.80;53.30
18287;DHT22;9269;50.838;12.094;2024-02-16T12:53:04;17.80;52.50
18287;DHT22;9269;50.838;12.094;2024-02-16T12:55:34;17.90;52.60
18287;DHT22;9269;50.838;12.094;2024-02-16T12:58:07;18.00;52.40
18287;DHT22;9269;50.838;12.094;2024-02-16T13:00:36;18.10;52.30
18287;DHT22;9269;50.838;12.094;2024-02-16T13:03:05;18.10;52.30
18287;DHT22;9269;50.838;12.094;2024-02-16T13:05:33;18.00;52.00
18287;DHT22;9269;50.838;12.094;2024-02-16T13:08:02;18.10;51.80
18287;DHT22;9269;50.838;12.094;2024-02-16T13:10:49;18.10;51.80
18287;DHT22;9269;50.838;12.094;2024-02-16T13:13:22;18.00;51.30
18287;DHT22;9269;50.838;12.094;2024-02-16T13:15:53;18.00;51.70
18287;DHT22;9269;50.838;12.094;2024-02-16T13:18:26;18.00;51.50
18287;DHT22;9269;50.838;12.094;2024-02-16T13:20:55;18.00;51.00
18287;DHT22;9269;50.838;12.094;2024-02-16T13:23:24;18.00;50.30
18287;DHT22;9269;50.838;12.094;2024-02-16T13:25:52;17.90;49.90
18287;DHT22;9269;50.838;12.094;2024-02-16T13:28:22;18.10;49.60
18287;DHT22;9269;50.838;12.094;2024-02-16T13:30:51;18.00;49.30
18287;DHT22;9269;50.838;12.094;2024-02-16T13:33:19;17.90;49.50
18287;DHT22;9269;50.838;12.094;2024-02-16T13:35:48;17.90;50.00
18287;DHT22;9269;50.838;12.094;2024-02-16T13:38:18;18.00;50.20
18287;DHT22;9269;50.838;12.094;2024-02-16T13:40:49;18.00;50.40
18287;DHT22;9269;50.838;12.094;2024-02-16T13:43:18;18.00;49.90
18287;DHT22;9269;50.838;12.094;2024-02-16T13:45:51;18.00;49.70
18287;DHT22;9269;50.838;12.094;2024-02-16T13:48:20;18.00;49.60
18287;DHT22;9269;50.838;12.094;2024-02-16T13:50:50;18.00;50.00
18287;DHT22;9269;50.838;12.094;2024-02-16T13:53:20;18.00;49.70
18287;DHT22;9269;50.838;12.094;2024-02-16T13:55:50;18.10;49.40
18287;DHT22;9269;50.838;12.094;2024-02-16T13:58:18;18.10;49.10
18287;DHT22;9269;50.838;12.094;2024-02-16T14:00:51;18.20;47.40
18287;DHT22;9269;50.838;12.094;2024-02-16T14:03:20;18.00;49.30
18287;DHT22;9269;50.838;12.094;2024-02-16T14:05:49;18.00;49.30
18287;DHT22;9269;50.838;12.094;2024-02-16T14:08:18;18.10;49.30
18287;DHT22;9269;50.838;12.094;2024-02-16T14:10:46;18.00;49.40
18287;DHT22;9269;50.838;12.094;2024-02-16T14:13:15;18.00;48.70
18287;DHT22;9269;50.838;12.094;2024-02-16T14:15:44;18.00;48.90
18287;DHT22;9269;50.838;12.094;2024-02-16T14:18:14;18.00;48.90
18287;DHT22;9269;50.838;12.094;2024-02-16T14:20:58;17.80;48.70
18287;DHT22;9269;50.838;12.094;2024-02-16T14:23:30;17.90;48.70
18287;DHT22;9269;50.838;12.094;2024-02-16T14:26:02;17.90;48.60
18287;DHT22;9269;50.838;12.094;2024-02-16T14:28:32;17.90;48.90
18287;DHT22;9269;50.838;12.094;2024-02-16T14:31:00;17.80;48.60
18287;DHT22;9269;50.838;12.094;2024-02-16T14:33:31;17.90;48.80
18287;DHT22;9269;50.838;12.094;2024-02-16T14:36:01;17.80;48.30
18287;DHT22;9269;50.838;12.094;2024-02-16T14:38:30;17.80;48.70
18287;DHT22;9269;50.838;12.094;2024-02-16T14:41:02;17.80;49.00
18287;DHT22;9269;50.838;12.094;2024-02-16T14:43:34;17.80;49.00
18287;DHT22;9269;50.838;12.094;2024-02-16T14:46:04;17.80;49.50
18287;DHT22;9269;50.838;12.094;2024-02-16T14:48:36;17.80;49.20
18287;DHT22;9269;50.838;12.094;2024-02-16T14:51:05;17.90;49.20
18287;DHT22;9269;50.838;12.094;2024-02-16T14:53:33;17.80;49.20
18287;DHT22;9269;50.838;12.094;2024-02-16T14:56:02;17.90;49.70
18287;DHT22;9269;50.838;12.094;2024-02-16T14:58:31;17.80;49.20
18287;DHT22;9269;50.838;12.094;2024-02-16T15:01:03;17.70;49.10
18287;DHT22;9269;50.838;12.094;2024-02-16T15:03:33;17.60;49.40
18287;DHT22;9269;50.838;12.094;2024-02-16T15:06:03;17.60;49.60
18287;DHT22;9269;50.838;12.094;2024-02-16T15:08:34;17.50;50.00
18287;DHT22;9269;50.838;12.094;2024-02-16T15:11:03;17.60;50.00
18287;DHT22;9269;50.838;12.094;2024-02-16T15:13:31;17.50;50.50
18287;DHT22;9269;50.838;12.094;2024-02-16T15:16:04;17.40;50.80
18287;DHT22;9269;50.838;12.094;2024-02-16T15:18:33;17.40;50.60
18287;DHT22;9269;50.838;12.094;2024-02-16T15:21:04;17.40;50.80
18287;DHT22;9269;50.838;12.094;2024-02-16T15:23:35;17.30;50.50
18287;DHT22;9269;50.838;12.094;2024-02-16T15:26:10;17.40;50.70
18287;DHT22;9269;50.838;12.094;2024-02-16T15:28:42;17.30;50.80
18287;DHT22;9269;50.838;12.094;2024-02-16T15:31:10;17.30;51.00
18287;DHT22;9269;50.838;12.094;2024-02-16T15:33:39;17.30;51.30
18287;DHT22;9269;50.838;12.094;2024-02-16T15:36:09;17.30;51.10
18287;DHT22;9269;50.838;12.094;2024-02-16T15:38:37;17.40;51.10
18287;DHT22;9269;50.838;12.094;2024-02-16T15:41:06;17.30;51.30
18287;DHT22;9269;50.838;12.094;2024-02-16T15:43:41;17.40;51.10
18287;DHT22;9269;50.838;12.094;2024-02-16T15:46:12;17.30;51.10
18287;DHT22;9269;50.838;12.094;2024-02-16T15:48:43;17.30;51.40
18287;DHT22;9269;50.838;12.094;2024-02-16T15:51:16;17.30;51.60
18287;DHT22;9269;50.838;12.094;2024-02-16T15:53:44;17.20;51.60
18287;DHT22;9269;50.838;12.094;2024-02-16T15:56:13;17.20;51.60
18287;DHT22;9269;50.838;12.094;2024-02-16T15:58:41;17.20;51.70
18287;DHT22;9269;50.838;12.094;2024-02-16T16:01:10;17.20;51.70
18287;DHT22;9269;50.838;12.094;2024-02-16T16:03:39;17.10;51.70
18287;DHT22;9269;50.838;12.094;2024-02-16T16:06:10;17.20;52.10
18287;DHT22;9269;50.838;12.094;2024-02-16T16:08:44;17.10;51.90
18287;DHT22;9269;50.838;12.094;2024-02-16T16:11:15;17.10;52.20
18287;DHT22;9269;50.838;12.094;2024-02-16T16:13:44;17.00;52.60
18287;DHT22;9269;50.838;12.094;2024-02-16T16:16:13;17.00;52.40
18287;DHT22;9269;50.838;12.094;2024-02-16T16:18:42;17.00;52.30
18287;DHT22;9269;50.838;12.094;2024-02-16T16:21:10;17.00;52.70
18287;DHT22;9269;50.838;12.094;2024-02-16T16:23:39;17.00;52.80
18287;DHT22;9269;50.838;12.094;2024-02-16T16:26:09;16.90;53.10
18287;DHT22;9269;50.838;12.094;2024-02-16T16:28:40;16.90;53.30
18287;DHT22;9269;50.838;12.094;2024-02-16T16:31:12;17.00;53.00
18287;DHT22;9269;50.838;12.094;2024-02-16T16:33:43;16.90;53.30
18287;DHT22;9269;50.838;12.094;2024-02-16T16:36:14;16.90;53.00
18287;DHT22;9269;50.838;12.094;2024-02-16T16:38:43;16.90;53.20
18287;DHT22;9269;50.838;12.094;2024-02-16T16:41:13;17.00;53.30
18287;DHT22;9269;50.838;12.094;2024-02-16T16:43:42;17.00;53.00
18287;DHT22;9269;50.838;12.094;2024-02-16T16:46:10;16.90;53.00
18287;DHT22;9269;50.838;12.094;2024-02-16T16:48:39;16.90;53.10
18287;DHT22;9269;50.838;12.094;2024-02-16T16:51:10;16.80;53.40
18287;DHT22;9269;50.838;12.094;2024-02-16T16:53:42;16.80;53.50
18287;DHT22;9269;50.838;12.094;2024-02-16T16:56:15;16.80;53.40
18287;DHT22;9269;50.838;12.094;2024-02-16T16:58:45;16.80;53.50
18287;DHT22;9269;50.838;12.094;2024-02-16T17:01:13;16.80;53.60
18287;DHT22;9269;50.838;12.094;2024-02-16T17:03:43;16.70;53.40
18287;DHT22;9269;50.838;12.094;2024-02-16T17:06:11;16.80;53.80
18287;DHT22;9269;50.838;12.094;2024-02-16T17:08:40;16.80;53.80
18287;DHT22;9269;50.838;12.094;2024-02-16T17:11:15;16.70;54.00
18287;DHT22;9269;50.838;12.094;2024-02-16T17:13:44;16.70;53.90
18287;DHT22;9269;50.838;12.094;2024-02-16T17:16:19;16.70;54.10
18287;DHT22;9269;50.838;12.094;2024-02-16T17:18:48;16.50;54.20
18287;DHT22;9269;50.838;12.094;2024-02-16T17:21:18;16.50;54.20
18287;DHT22;9269;50.838;12.094;2024-02-16T17:23:47;16.50;53.80
18287;DHT22;9269;50.838;12.094;2024-02-16T17:26:19;16.40;54.80
18287;DHT22;9269;50.838;12.094;2024-02-16T17:28:47;16.50;54.40
18287;DHT22;9269;50.838;12.094;2024-02-16T17:31:16;16.40;54.10
18287;DHT22;9269;50.838;12.094;2024-02-16T17:33:47;16.40;54.50
18287;DHT22;9269;50.838;12.094;2024-02-16T17:36:18;16.40;54.60